sensor_id;sensor_type;location;lat;lon;timestamp;P1;durP1;ratioP1;P2;durP2;ratioP2
69414;SDS011;56608;43.530;-5.652;2023-02-11T00:00:27;19.87;;;8.18;;
69414;SDS011;56608;43.530;-5.652;2023-02-11T00:01:33;24.45;;;8.40;;
69414;SDS011;56608;43.530;-5.652;2023-02-11T00:02:35;15.95;;;7.85;;
69414;SDS011;56608;43.530;-5.652;2023-02-11T00:03:36;14.00;;;7.50;;
69414;SDS011;56608;43.530;-5.652;2023-02-11T00:04:38;19.85;;;8.23;;
69414;SDS011;56608;43.530;-5.652;2023-02-11T00:05:40;18.67;;;7.85;;
69414;SDS011;56608;43.530;-5.652;2023-02-11T00:06:41;14.95;;;8.50;;
69414;SDS011;56608;43.530;-5.652;2023-02-11T00:07:43;20.83;;;8.25;;
69414;SDS011;56608;43.530;-5.652;2023-02-11T00:08:43;19.07;;;8.17;;
69414;SDS011;56608;43.530;-5.652;2023-02-11T00:09:45;17.70;;;8.00;;
69414;SDS011;56608;43.530;-5.652;2023-02-11T00:10:50;16.40;;;9.32;;
69414;SDS011;56608;43.530;-5.652;2023-02-11T00:11:55;19.42;;;8.75;;
69414;SDS011;56608;43.530;-5.652;2023-02-11T00:12:57;17.73;;;8.65;;
69414;SDS011;56608;43.530;-5.652;2023-02-11T00:14:00;17.95;;;8.98;;
69414;SDS011;56608;43.530;-5.652;2023-02-11T00:15:04;13.65;;;8.38;;
69414;SDS011;56608;43.530;-5.652;2023-02-11T00:16:08;16.98;;;8.18;;
69414;SDS011;56608;43.530;-5.652;2023-02-11T00:17:14;17.60;;;8.40;;
69414;SDS011;56608;43.530;-5.652;2023-02-11T00:18:16;15.95;;;8.30;;
69414;SDS011;56608;43.530;-5.652;2023-02-11T00:19:17;19.48;;;7.87;;
69414;SDS011;56608;43.530;-5.652;2023-02-11T00:20:18;17.27;;;7.72;;
69414;SDS011;56608;43.530;-5.652;2023-02-11T00:21:21;16.85;;;8.80;;
69414;SDS011;56608;43.530;-5.652;2023-02-11T00:22:23;17.23;;;8.43;;
69414;SDS011;56608;43.530;-5.652;2023-02-11T00:23:25;15.35;;;7.97;;
69414;SDS011;56608;43.530;-5.652;2023-02-11T00:24:26;18.48;;;8.60;;
69414;SDS011;56608;43.530;-5.652;2023-02-11T00:25:30;19.37;;;8.00;;
69414;SDS011;56608;43.530;-5.652;2023-02-11T00:27:33;18.10;;;8.15;;
69414;SDS011;56608;43.530;-5.652;2023-02-11T00:28:36;14.18;;;7.43;;
69414;SDS011;56608;43.530;-5.652;2023-02-11T00:29:37;18.00;;;8.27;;
69414;SDS011;56608;43.530;-5.652;2023-02-11T00:31:40;15.15;;;7.95;;
69414;SDS011;56608;43.530;-5.652;2023-02-11T00:32:40;17.90;;;8.45;;
69414;SDS011;56608;43.530;-5.652;2023-02-11T00:33:43;18.42;;;7.68;;
69414;SDS011;56608;43.530;-5.652;2023-02-11T00:34:45;17.37;;;8.80;;
69414;SDS011;56608;43.530;-5.652;2023-02-11T00:35:45;20.77;;;8.20;;
69414;SDS011;56608;43.530;-5.652;2023-02-11T00:36:47;19.77;;;8.35;;
69414;SDS011;56608;43.530;-5.652;2023-02-11T00:38:51;18.45;;;8.40;;
69414;SDS011;56608;43.530;-5.652;2023-02-11T00:39:53;17.55;;;8.65;;
69414;SDS011;56608;43.530;-5.652;2023-02-11T00:40:55;23.62;;;9.73;;
69414;SDS011;56608;43.530;-5.652;2023-02-11T00:41:56;17.87;;;8.40;;
69414;SDS011;56608;43.530;-5.652;2023-02-11T00:43:59;22.60;;;8.15;;
69414;SDS011;56608;43.530;-5.652;2023-02-11T00:45:02;18.48;;;8.68;;
69414;SDS011;56608;43.530;-5.652;2023-02-11T00:46:03;17.00;;;8.57;;
69414;SDS011;56608;43.530;-5.652;2023-02-11T00:48:06;22.27;;;8.32;;
69414;SDS011;56608;43.530;-5.652;2023-02-11T00:49:08;14.00;;;8.00;;
69414;SDS011;56608;43.530;-5.652;2023-02-11T00:50:08;18.20;;;8.30;;
69414;SDS011;56608;43.530;-5.652;2023-02-11T00:51:10;15.00;;;7.47;;
69414;SDS011;56608;43.530;-5.652;2023-02-11T00:52:12;19.50;;;7.90;;
69414;SDS011;56608;43.530;-5.652;2023-02-11T00:53:14;17.75;;;9.20;;
69414;SDS011;56608;43.530;-5.652;2023-02-11T00:54:15;17.77;;;8.60;;
69414;SDS011;56608;43.530;-5.652;2023-02-11T00:55:16;18.95;;;9.05;;
69414;SDS011;56608;43.530;-5.652;2023-02-11T00:56:18;18.05;;;7.87;;
69414;SDS011;56608;43.530;-5.652;2023-02-11T00:57:20;17.60;;;8.43;;
69414;SDS011;56608;43.530;-5.652;2023-02-11T00:58:21;19.23;;;8.85;;
69414;SDS011;56608;43.530;-5.652;2023-02-11T00:59:23;17.05;;;8.45;;
69414;SDS011;56608;43.530;-5.652;2023-02-11T01:00:25;19.80;;;9.40;;
69414;SDS011;56608;43.530;-5.652;2023-02-11T01:01:27;19.25;;;9.30;;
69414;SDS011;56608;43.530;-5.652;2023-02-11T01:02:28;22.85;;;9.25;;
69414;SDS011;56608;43.530;-5.652;2023-02-11T01:03:29;17.90;;;8.85;;
69414;SDS011;56608;43.530;-5.652;2023-02-11T01:04:31;17.30;;;8.73;;
69414;SDS011;56608;43.530;-5.652;2023-02-11T01:05:32;15.55;;;8.45;;
69414;SDS011;56608;43.530;-5.652;2023-02-11T01:06:34;18.35;;;9.45;;
69414;SDS011;56608;43.530;-5.652;2023-02-11T01:07:35;19.75;;;8.93;;
69414;SDS011;56608;43.530;-5.652;2023-02-11T01:08:36;25.95;;;9.60;;
69414;SDS011;56608;43.530;-5.652;2023-02-11T01:09:38;17.35;;;8.65;;
69414;SDS011;56608;43.530;-5.652;2023-02-11T01:10:39;17.15;;;8.30;;
69414;SDS011;56608;43.530;-5.652;2023-02-11T01:11:40;16.55;;;7.87;;
69414;SDS011;56608;43.530;-5.652;2023-02-11T01:12:42;18.50;;;8.70;;
69414;SDS011;56608;43.530;-5.652;2023-02-11T01:13:43;18.07;;;8.70;;
69414;SDS011;56608;43.530;-5.652;2023-02-11T01:14:44;19.30;;;9.00;;
69414;SDS011;56608;43.530;-5.652;2023-02-11T01:15:46;22.05;;;10.07;;
69414;SDS011;56608;43.530;-5.652;2023-02-11T01:16:47;20.40;;;8.77;;
69414;SDS011;56608;43.530;-5.652;2023-02-11T01:17:49;17.77;;;9.43;;
69414;SDS011;56608;43.530;-5.652;2023-02-11T01:18:49;18.90;;;8.90;;
69414;SDS011;56608;43.530;-5.652;2023-02-11T01:19:51;21.10;;;9.07;;
69414;SDS011;56608;43.530;-5.652;2023-02-11T01:20:52;18.97;;;10.20;;
69414;SDS011;56608;43.530;-5.652;2023-02-11T01:21:54;19.55;;;9.02;;
69414;SDS011;56608;43.530;-5.652;2023-02-11T01:22:55;21.87;;;10.45;;
69414;SDS011;56608;43.530;-5.652;2023-02-11T01:23:56;15.85;;;9.00;;
69414;SDS011;56608;43.530;-5.652;2023-02-11T01:24:58;23.80;;;9.02;;
69414;SDS011;56608;43.530;-5.652;2023-02-11T01:25:59;20.05;;;9.75;;
69414;SDS011;56608;43.530;-5.652;2023-02-11T01:27:00;16.87;;;8.65;;
69414;SDS011;56608;43.530;-5.652;2023-02-11T01:28:02;20.80;;;9.75;;
69414;SDS011;56608;43.530;-5.652;2023-02-11T01:29:03;18.83;;;9.57;;
69414;SDS011;56608;43.530;-5.652;2023-02-11T01:30:06;21.40;;;9.63;;
69414;SDS011;56608;43.530;-5.652;2023-02-11T01:31:09;19.02;;;9.18;;
69414;SDS011;56608;43.530;-5.652;2023-02-11T01:32:11;19.00;;;9.98;;
69414;SDS011;56608;43.530;-5.652;2023-02-11T01:33:12;22.20;;;10.15;;
69414;SDS011;56608;43.530;-5.652;2023-02-11T01:34:14;20.30;;;9.50;;
69414;SDS011;56608;43.530;-5.652;2023-02-11T01:35:16;20.33;;;9.82;;
69414;SDS011;56608;43.530;-5.652;2023-02-11T01:36:17;17.37;;;8.73;;
69414;SDS011;56608;43.530;-5.652;2023-02-11T01:37:18;20.48;;;9.40;;
69414;SDS011;56608;43.530;-5.652;2023-02-11T01:38:21;17.30;;;9.05;;
69414;SDS011;56608;43.530;-5.652;2023-02-11T01:39:24;25.65;;;9.68;;
69414;SDS011;56608;43.530;-5.652;2023-02-11T01:40:26;15.38;;;8.40;;
69414;SDS011;56608;43.530;-5.652;2023-02-11T01:41:27;16.87;;;8.43;;
69414;SDS011;56608;43.530;-5.652;2023-02-11T01:42:28;21.83;;;9.20;;
69414;SDS011;56608;43.530;-5.652;2023-02-11T01:43:31;19.42;;;8.50;;
69414;SDS011;56608;43.530;-5.652;2023-02-11T01:44:37;19.60;;;9.13;;
69414;SDS011;56608;43.530;-5.652;2023-02-11T01:46:47;17.15;;;8.93;;
69414;SDS011;56608;43.530;-5.652;2023-02-11T01:47:48;22.95;;;9.27;;
69414;SDS011;56608;43.530;-5.652;2023-02-11T01:48:51;20.20;;;8.65;;
69414;SDS011;56608;43.530;-5.652;2023-02-11T01:49:56;16.87;;;9.10;;
69414;SDS011;56608;43.530;-5.652;2023-02-11T01:51:47;21.50;;;9.38;;
69414;SDS011;56608;43.530;-5.652;2023-02-11T01:52:30;17.80;;;9.00;;
69414;SDS011;56608;43.530;-5.652;2023-02-11T01:53:35;20.67;;;9.20;;
69414;SDS011;56608;43.530;-5.652;2023-02-11T01:54:58;19.75;;;9.65;;
69414;SDS011;56608;43.530;-5.652;2023-02-11T01:56:21;19.48;;;8.32;;
69414;SDS011;56608;43.530;-5.652;2023-02-11T01:57:46;16.33;;;8.50;;
69414;SDS011;56608;43.530;-5.652;2023-02-11T01:58:58;15.88;;;7.90;;
69414;SDS011;56608;43.530;-5.652;2023-02-11T02:01:10;26.30;;;9.63;;
69414;SDS011;56608;43.530;-5.652;2023-02-11T02:02:16;22.08;;;10.00;;
69414;SDS011;56608;43.530;-5.652;2023-02-11T02:03:21;17.98;;;9.50;;
69414;SDS011;56608;43.530;-5.652;2023-02-11T02:04:24;18.73;;;9.40;;
69414;SDS011;56608;43.530;-5.652;2023-02-11T02:05:33;20.37;;;9.18;;
69414;SDS011;56608;43.530;-5.652;2023-02-11T02:06:42;16.62;;;8.88;;
69414;SDS011;56608;43.530;-5.652;2023-02-11T02:09:10;15.77;;;8.07;;
69414;SDS011;56608;43.530;-5.652;2023-02-11T02:10:18;19.35;;;8.63;;
69414;SDS011;56608;43.530;-5.652;2023-02-11T02:11:22;20.52;;;9.68;;
69414;SDS011;56608;43.530;-5.652;2023-02-11T02:12:24;20.10;;;9.90;;
69414;SDS011;56608;43.530;-5.652;2023-02-11T02:13:26;16.43;;;8.50;;
69414;SDS011;56608;43.530;-5.652;2023-02-11T02:14:30;20.05;;;10.00;;
69414;SDS011;56608;43.530;-5.652;2023-02-11T02:15:32;23.70;;;10.55;;
69414;SDS011;56608;43.530;-5.652;2023-02-11T02:16:35;18.55;;;9.18;;
69414;SDS011;56608;43.530;-5.652;2023-02-11T02:17:39;23.12;;;9.65;;
69414;SDS011;56608;43.530;-5.652;2023-02-11T02:21:21;17.70;;;9.35;;
69414;SDS011;56608;43.530;-5.652;2023-02-11T02:27:24;25.30;;;9.48;;
69414;SDS011;56608;43.530;-5.652;2023-02-11T02:31:58;14.95;;;9.18;;
69414;SDS011;56608;43.530;-5.652;2023-02-11T02:33:29;17.48;;;9.20;;
69414;SDS011;56608;43.530;-5.652;2023-02-11T02:34:41;24.00;;;10.98;;
69414;SDS011;56608;43.530;-5.652;2023-02-11T02:37:31;18.65;;;10.07;;
69414;SDS011;56608;43.530;-5.652;2023-02-11T02:38:38;20.67;;;9.60;;
69414;SDS011;56608;43.530;-5.652;2023-02-11T02:40:02;15.60;;;9.00;;
69414;SDS011;56608;43.530;-5.652;2023-02-11T02:41:11;19.23;;;9.40;;
69414;SDS011;56608;43.530;-5.652;2023-02-11T02:42:16;15.00;;;8.98;;
69414;SDS011;56608;43.530;-5.652;2023-02-11T02:43:19;20.30;;;8.82;;
69414;SDS011;56608;43.530;-5.652;2023-02-11T02:44:22;18.67;;;8.35;;
69414;SDS011;56608;43.530;-5.652;2023-02-11T02:45:24;19.45;;;8.30;;
69414;SDS011;56608;43.530;-5.652;2023-02-11T02:46:30;18.95;;;8.57;;
69414;SDS011;56608;43.530;-5.652;2023-02-11T02:47:33;20.20;;;9.25;;
69414;SDS011;56608;43.530;-5.652;2023-02-11T02:48:34;20.03;;;8.27;;
69414;SDS011;56608;43.530;-5.652;2023-02-11T02:49:38;16.80;;;8.80;;
69414;SDS011;56608;43.530;-5.652;2023-02-11T02:50:39;18.30;;;9.30;;
69414;SDS011;56608;43.530;-5.652;2023-02-11T03:02:35;16.67;;;9.48;;
69414;SDS011;56608;43.530;-5.652;2023-02-11T03:03:51;25.20;;;9.93;;
69414;SDS011;56608;43.530;-5.652;2023-02-11T03:07:07;17.67;;;9.43;;
69414;SDS011;56608;43.530;-5.652;2023-02-11T03:08:09;21.17;;;10.25;;
69414;SDS011;56608;43.530;-5.652;2023-02-11T03:09:20;20.02;;;10.40;;
69414;SDS011;56608;43.530;-5.652;2023-02-11T03:11:33;21.35;;;10.30;;
69414;SDS011;56608;43.530;-5.652;2023-02-11T03:12:37;21.40;;;10.52;;
69414;SDS011;56608;43.530;-5.652;2023-02-11T03:13:40;19.75;;;10.10;;
69414;SDS011;56608;43.530;-5.652;2023-02-11T03:14:44;17.17;;;9.23;;
69414;SDS011;56608;43.530;-5.652;2023-02-11T03:15:47;19.05;;;9.43;;
69414;SDS011;56608;43.530;-5.652;2023-02-11T03:16:52;18.17;;;9.90;;
69414;SDS011;56608;43.530;-5.652;2023-02-11T03:17:57;21.80;;;9.85;;
69414;SDS011;56608;43.530;-5.652;2023-02-11T03:19:02;19.33;;;9.35;;
69414;SDS011;56608;43.530;-5.652;2023-02-11T03:20:09;18.23;;;8.02;;
69414;SDS011;56608;43.530;-5.652;2023-02-11T03:21:13;22.55;;;9.15;;
69414;SDS011;56608;43.530;-5.652;2023-02-11T03:23:53;20.98;;;8.40;;
69414;SDS011;56608;43.530;-5.652;2023-02-11T03:24:56;21.62;;;8.70;;
69414;SDS011;56608;43.530;-5.652;2023-02-11T03:26:20;20.30;;;9.10;;
69414;SDS011;56608;43.530;-5.652;2023-02-11T03:27:28;16.23;;;9.02;;
69414;SDS011;56608;43.530;-5.652;2023-02-11T03:28:43;21.73;;;9.15;;
69414;SDS011;56608;43.530;-5.652;2023-02-11T03:30:04;16.98;;;9.63;;
69414;SDS011;56608;43.530;-5.652;2023-02-11T03:31:12;25.80;;;9.35;;
69414;SDS011;56608;43.530;-5.652;2023-02-11T03:35:00;20.62;;;10.00;;
69414;SDS011;56608;43.530;-5.652;2023-02-11T03:36:08;19.27;;;8.85;;
69414;SDS011;56608;43.530;-5.652;2023-02-11T03:37:19;18.50;;;9.07;;
69414;SDS011;56608;43.530;-5.652;2023-02-11T03:38:32;17.73;;;9.23;;
69414;SDS011;56608;43.530;-5.652;2023-02-11T03:39:38;19.55;;;8.48;;
69414;SDS011;56608;43.530;-5.652;2023-02-11T03:40:42;19.45;;;9.02;;
69414;SDS011;56608;43.530;-5.652;2023-02-11T03:41:45;16.90;;;8.60;;
69414;SDS011;56608;43.530;-5.652;2023-02-11T03:42:52;14.68;;;8.15;;
69414;SDS011;56608;43.530;-5.652;2023-02-11T03:43:58;17.37;;;7.97;;
69414;SDS011;56608;43.530;-5.652;2023-02-11T03:45:08;18.17;;;8.88;;
69414;SDS011;56608;43.530;-5.652;2023-02-11T03:46:13;19.00;;;8.55;;
69414;SDS011;56608;43.530;-5.652;2023-02-11T03:47:19;15.23;;;7.40;;
69414;SDS011;56608;43.530;-5.652;2023-02-11T03:48:27;18.12;;;7.65;;
69414;SDS011;56608;43.530;-5.652;2023-02-11T03:49:32;17.50;;;8.27;;
69414;SDS011;56608;43.530;-5.652;2023-02-11T03:50:36;21.30;;;8.52;;
69414;SDS011;56608;43.530;-5.652;2023-02-11T03:51:40;18.48;;;8.95;;
69414;SDS011;56608;43.530;-5.652;2023-02-11T03:52:41;15.73;;;7.90;;
69414;SDS011;56608;43.530;-5.652;2023-02-11T03:53:45;23.08;;;9.15;;
69414;SDS011;56608;43.530;-5.652;2023-02-11T03:54:50;15.82;;;8.57;;
69414;SDS011;56608;43.530;-5.652;2023-02-11T03:55:56;20.77;;;9.02;;
69414;SDS011;56608;43.530;-5.652;2023-02-11T03:57:01;17.40;;;8.25;;
69414;SDS011;56608;43.530;-5.652;2023-02-11T03:58:03;20.58;;;9.25;;
69414;SDS011;56608;43.530;-5.652;2023-02-11T03:59:05;15.18;;;8.50;;
69414;SDS011;56608;43.530;-5.652;2023-02-11T04:00:08;16.40;;;8.43;;
69414;SDS011;56608;43.530;-5.652;2023-02-11T04:01:10;18.55;;;8.63;;
69414;SDS011;56608;43.530;-5.652;2023-02-11T04:02:12;18.65;;;9.30;;
69414;SDS011;56608;43.530;-5.652;2023-02-11T04:03:13;17.62;;;9.15;;
69414;SDS011;56608;43.530;-5.652;2023-02-11T04:04:15;16.75;;;9.00;;
69414;SDS011;56608;43.530;-5.652;2023-02-11T04:05:16;17.37;;;8.82;;
69414;SDS011;56608;43.530;-5.652;2023-02-11T04:06:18;17.12;;;8.93;;
69414;SDS011;56608;43.530;-5.652;2023-02-11T04:07:19;19.65;;;8.88;;
69414;SDS011;56608;43.530;-5.652;2023-02-11T04:08:20;19.60;;;8.90;;
69414;SDS011;56608;43.530;-5.652;2023-02-11T04:09:21;17.23;;;8.80;;
69414;SDS011;56608;43.530;-5.652;2023-02-11T04:10:23;20.20;;;9.20;;
69414;SDS011;56608;43.530;-5.652;2023-02-11T04:12:25;14.20;;;7.75;;
69414;SDS011;56608;43.530;-5.652;2023-02-11T04:13:27;18.95;;;8.13;;
69414;SDS011;56608;43.530;-5.652;2023-02-11T04:14:28;17.17;;;8.53;;
69414;SDS011;56608;43.530;-5.652;2023-02-11T04:15:29;22.50;;;8.50;;
69414;SDS011;56608;43.530;-5.652;2023-02-11T04:16:31;19.58;;;8.18;;
69414;SDS011;56608;43.530;-5.652;2023-02-11T04:17:32;17.70;;;8.27;;
69414;SDS011;56608;43.530;-5.652;2023-02-11T04:18:34;19.15;;;9.75;;
69414;SDS011;56608;43.530;-5.652;2023-02-11T04:19:35;16.27;;;7.93;;
69414;SDS011;56608;43.530;-5.652;2023-02-11T04:20:37;15.18;;;8.23;;
69414;SDS011;56608;43.530;-5.652;2023-02-11T04:21:38;17.02;;;8.50;;
69414;SDS011;56608;43.530;-5.652;2023-02-11T04:22:39;15.10;;;8.48;;
69414;SDS011;56608;43.530;-5.652;2023-02-11T04:23:41;15.95;;;8.77;;
69414;SDS011;56608;43.530;-5.652;2023-02-11T04:24:42;18.12;;;8.93;;
69414;SDS011;56608;43.530;-5.652;2023-02-11T04:25:44;18.48;;;8.70;;
69414;SDS011;56608;43.530;-5.652;2023-02-11T04:26:45;17.25;;;8.13;;
69414;SDS011;56608;43.530;-5.652;2023-02-11T04:27:46;16.40;;;8.00;;
69414;SDS011;56608;43.530;-5.652;2023-02-11T04:28:47;16.10;;;8.43;;
69414;SDS011;56608;43.530;-5.652;2023-02-11T04:29:49;18.77;;;8.40;;
69414;SDS011;56608;43.530;-5.652;2023-02-11T04:30:49;20.17;;;8.50;;
69414;SDS011;56608;43.530;-5.652;2023-02-11T04:31:51;17.08;;;8.68;;
69414;SDS011;56608;43.530;-5.652;2023-02-11T04:32:52;17.67;;;8.23;;
69414;SDS011;56608;43.530;-5.652;2023-02-11T04:33:55;14.77;;;7.70;;
69414;SDS011;56608;43.530;-5.652;2023-02-11T04:34:56;17.37;;;8.20;;
69414;SDS011;56608;43.530;-5.652;2023-02-11T04:35:58;16.75;;;8.15;;
69414;SDS011;56608;43.530;-5.652;2023-02-11T04:36:59;15.45;;;8.45;;
69414;SDS011;56608;43.530;-5.652;2023-02-11T04:38:01;17.35;;;8.70;;
69414;SDS011;56608;43.530;-5.652;2023-02-11T04:39:02;18.52;;;8.48;;
69414;SDS011;56608;43.530;-5.652;2023-02-11T04:40:04;18.40;;;7.80;;
69414;SDS011;56608;43.530;-5.652;2023-02-11T04:41:06;14.65;;;8.82;;
69414;SDS011;56608;43.530;-5.652;2023-02-11T04:42:07;20.07;;;8.73;;
69414;SDS011;56608;43.530;-5.652;2023-02-11T04:43:08;16.08;;;8.05;;
69414;SDS011;56608;43.530;-5.652;2023-02-11T04:44:10;16.20;;;8.20;;
69414;SDS011;56608;43.530;-5.652;2023-02-11T04:45:11;16.70;;;7.77;;
69414;SDS011;56608;43.530;-5.652;2023-02-11T04:46:13;18.05;;;8.60;;
69414;SDS011;56608;43.530;-5.652;2023-02-11T04:47:14;20.80;;;7.80;;
69414;SDS011;56608;43.530;-5.652;2023-02-11T04:48:16;18.58;;;8.35;;
69414;SDS011;56608;43.530;-5.652;2023-02-11T04:49:17;18.30;;;8.00;;
69414;SDS011;56608;43.530;-5.652;2023-02-11T04:50:18;19.40;;;8.70;;
69414;SDS011;56608;43.530;-5.652;2023-02-11T04:51:19;16.05;;;8.40;;
69414;SDS011;56608;43.530;-5.652;2023-02-11T04:52:21;16.90;;;8.00;;
69414;SDS011;56608;43.530;-5.652;2023-02-11T04:53:22;18.33;;;9.00;;
69414;SDS011;56608;43.530;-5.652;2023-02-11T04:54:24;17.00;;;7.83;;
69414;SDS011;56608;43.530;-5.652;2023-02-11T04:55:25;19.08;;;7.87;;
69414;SDS011;56608;43.530;-5.652;2023-02-11T04:56:26;15.40;;;7.70;;
69414;SDS011;56608;43.530;-5.652;2023-02-11T04:57:28;16.85;;;8.25;;
69414;SDS011;56608;43.530;-5.652;2023-02-11T04:58:28;13.40;;;7.77;;
69414;SDS011;56608;43.530;-5.652;2023-02-11T04:59:30;13.68;;;7.43;;
69414;SDS011;56608;43.530;-5.652;2023-02-11T05:00:31;14.97;;;7.47;;
69414;SDS011;56608;43.530;-5.652;2023-02-11T05:01:33;15.10;;;7.68;;
69414;SDS011;56608;43.530;-5.652;2023-02-11T05:02:34;13.00;;;7.60;;
69414;SDS011;56608;43.530;-5.652;2023-02-11T05:03:35;19.50;;;8.70;;
69414;SDS011;56608;43.530;-5.652;2023-02-11T05:04:37;14.68;;;7.53;;
69414;SDS011;56608;43.530;-5.652;2023-02-11T05:05:39;15.75;;;7.40;;
69414;SDS011;56608;43.530;-5.652;2023-02-11T05:06:41;12.95;;;7.40;;
69414;SDS011;56608;43.530;-5.652;2023-02-11T05:07:41;15.47;;;7.80;;
69414;SDS011;56608;43.530;-5.652;2023-02-11T05:08:43;16.58;;;7.35;;
69414;SDS011;56608;43.530;-5.652;2023-02-11T05:09:44;21.00;;;8.57;;
69414;SDS011;56608;43.530;-5.652;2023-02-11T05:10:46;13.55;;;7.43;;
69414;SDS011;56608;43.530;-5.652;2023-02-11T05:12:49;16.40;;;8.30;;
69414;SDS011;56608;43.530;-5.652;2023-02-11T05:13:50;16.37;;;6.97;;
69414;SDS011;56608;43.530;-5.652;2023-02-11T05:14:52;14.82;;;7.25;;
69414;SDS011;56608;43.530;-5.652;2023-02-11T05:15:53;13.68;;;6.90;;
69414;SDS011;56608;43.530;-5.652;2023-02-11T05:16:55;14.27;;;7.60;;
69414;SDS011;56608;43.530;-5.652;2023-02-11T05:17:57;13.20;;;7.57;;
69414;SDS011;56608;43.530;-5.652;2023-02-11T05:18:57;13.90;;;7.50;;
69414;SDS011;56608;43.530;-5.652;2023-02-11T05:19:59;13.07;;;6.68;;
69414;SDS011;56608;43.530;-5.652;2023-02-11T05:21:04;16.52;;;7.25;;
69414;SDS011;56608;43.530;-5.652;2023-02-11T05:22:06;16.60;;;7.28;;
69414;SDS011;56608;43.530;-5.652;2023-02-11T05:23:08;17.00;;;7.62;;
69414;SDS011;56608;43.530;-5.652;2023-02-11T05:25:10;19.00;;;8.10;;
69414;SDS011;56608;43.530;-5.652;2023-02-11T05:26:12;13.10;;;8.20;;
69414;SDS011;56608;43.530;-5.652;2023-02-11T05:27:13;15.15;;;7.55;;
69414;SDS011;56608;43.530;-5.652;2023-02-11T05:28:14;16.60;;;7.77;;
69414;SDS011;56608;43.530;-5.652;2023-02-11T05:29:16;14.20;;;7.45;;
69414;SDS011;56608;43.530;-5.652;2023-02-11T05:30:16;14.85;;;7.30;;
69414;SDS011;56608;43.530;-5.652;2023-02-11T05:31:18;15.65;;;8.07;;
69414;SDS011;56608;43.530;-5.652;2023-02-11T05:32:19;14.37;;;7.77;;
69414;SDS011;56608;43.530;-5.652;2023-02-11T05:33:21;16.17;;;7.80;;
69414;SDS011;56608;43.530;-5.652;2023-02-11T05:34:22;13.23;;;7.22;;
69414;SDS011;56608;43.530;-5.652;2023-02-11T05:35:23;14.20;;;7.55;;
69414;SDS011;56608;43.530;-5.652;2023-02-11T05:36:25;13.45;;;7.62;;
69414;SDS011;56608;43.530;-5.652;2023-02-11T05:37:25;16.00;;;8.53;;
69414;SDS011;56608;43.530;-5.652;2023-02-11T05:38:27;14.15;;;7.43;;
69414;SDS011;56608;43.530;-5.652;2023-02-11T05:39:29;18.25;;;7.60;;
69414;SDS011;56608;43.530;-5.652;2023-02-11T05:40:30;14.82;;;7.45;;
69414;SDS011;56608;43.530;-5.652;2023-02-11T05:41:32;15.77;;;8.02;;
69414;SDS011;56608;43.530;-5.652;2023-02-11T05:42:33;18.80;;;8.55;;
69414;SDS011;56608;43.530;-5.652;2023-02-11T05:43:34;16.15;;;7.90;;
69414;SDS011;56608;43.530;-5.652;2023-02-11T05:44:36;16.33;;;8.03;;
69414;SDS011;56608;43.530;-5.652;2023-02-11T05:45:38;16.77;;;7.70;;
69414;SDS011;56608;43.530;-5.652;2023-02-11T05:46:39;16.65;;;7.35;;
69414;SDS011;56608;43.530;-5.652;2023-02-11T05:47:39;14.70;;;8.10;;
69414;SDS011;56608;43.530;-5.652;2023-02-11T05:48:41;11.23;;;6.47;;
69414;SDS011;56608;43.530;-5.652;2023-02-11T05:49:43;13.93;;;7.25;;
69414;SDS011;56608;43.530;-5.652;2023-02-11T05:50:44;13.35;;;6.90;;
69414;SDS011;56608;43.530;-5.652;2023-02-11T05:51:46;18.50;;;6.87;;
69414;SDS011;56608;43.530;-5.652;2023-02-11T05:52:47;10.65;;;7.18;;
69414;SDS011;56608;43.530;-5.652;2023-02-11T05:53:48;12.10;;;6.60;;
69414;SDS011;56608;43.530;-5.652;2023-02-11T05:54:50;12.45;;;7.32;;
69414;SDS011;56608;43.530;-5.652;2023-02-11T05:55:51;13.32;;;7.00;;
69414;SDS011;56608;43.530;-5.652;2023-02-11T05:56:53;12.80;;;7.40;;
69414;SDS011;56608;43.530;-5.652;2023-02-11T05:57:53;16.60;;;7.10;;
69414;SDS011;56608;43.530;-5.652;2023-02-11T05:58:57;16.02;;;7.28;;
69414;SDS011;56608;43.530;-5.652;2023-02-11T05:59:59;15.18;;;6.40;;
69414;SDS011;56608;43.530;-5.652;2023-02-11T06:01:00;9.15;;;6.40;;
69414;SDS011;56608;43.530;-5.652;2023-02-11T06:02:02;12.35;;;6.72;;
69414;SDS011;56608;43.530;-5.652;2023-02-11T06:03:03;13.25;;;6.43;;
69414;SDS011;56608;43.530;-5.652;2023-02-11T06:04:05;10.00;;;5.90;;
69414;SDS011;56608;43.530;-5.652;2023-02-11T06:05:06;14.50;;;6.00;;
69414;SDS011;56608;43.530;-5.652;2023-02-11T06:06:09;16.75;;;6.40;;
69414;SDS011;56608;43.530;-5.652;2023-02-11T06:07:13;18.48;;;7.12;;
69414;SDS011;56608;43.530;-5.652;2023-02-11T06:08:14;12.32;;;5.62;;
69414;SDS011;56608;43.530;-5.652;2023-02-11T06:09:15;13.60;;;6.30;;
69414;SDS011;56608;43.530;-5.652;2023-02-11T06:10:16;13.75;;;6.53;;
69414;SDS011;56608;43.530;-5.652;2023-02-11T06:11:17;12.80;;;6.10;;
69414;SDS011;56608;43.530;-5.652;2023-02-11T06:12:20;14.75;;;6.65;;
69414;SDS011;56608;43.530;-5.652;2023-02-11T06:13:21;12.40;;;5.40;;
69414;SDS011;56608;43.530;-5.652;2023-02-11T06:14:22;12.05;;;6.37;;
69414;SDS011;56608;43.530;-5.652;2023-02-11T06:15:24;14.05;;;6.35;;
69414;SDS011;56608;43.530;-5.652;2023-02-11T06:16:25;13.00;;;5.70;;
69414;SDS011;56608;43.530;-5.652;2023-02-11T06:17:26;12.65;;;5.15;;
69414;SDS011;56608;43.530;-5.652;2023-02-11T06:18:29;14.07;;;6.07;;
69414;SDS011;56608;43.530;-5.652;2023-02-11T06:19:29;14.75;;;6.20;;
69414;SDS011;56608;43.530;-5.652;2023-02-11T06:20:31;11.95;;;5.43;;
69414;SDS011;56608;43.530;-5.652;2023-02-11T06:21:32;15.10;;;6.37;;
69414;SDS011;56608;43.530;-5.652;2023-02-11T06:22:34;13.80;;;6.32;;
69414;SDS011;56608;43.530;-5.652;2023-02-11T06:23:36;13.15;;;5.95;;
69414;SDS011;56608;43.530;-5.652;2023-02-11T06:24:38;12.07;;;6.05;;
69414;SDS011;56608;43.530;-5.652;2023-02-11T06:25:39;15.80;;;6.55;;
69414;SDS011;56608;43.530;-5.652;2023-02-11T06:26:41;17.50;;;6.43;;
69414;SDS011;56608;43.530;-5.652;2023-02-11T06:27:42;14.73;;;6.37;;
69414;SDS011;56608;43.530;-5.652;2023-02-11T06:28:44;14.93;;;6.10;;
69414;SDS011;56608;43.530;-5.652;2023-02-11T06:30:46;12.77;;;6.28;;
69414;SDS011;56608;43.530;-5.652;2023-02-11T06:31:47;16.70;;;6.95;;
69414;SDS011;56608;43.530;-5.652;2023-02-11T06:32:49;10.90;;;6.18;;
69414;SDS011;56608;43.530;-5.652;2023-02-11T06:33:51;15.10;;;7.03;;
69414;SDS011;56608;43.530;-5.652;2023-02-11T06:34:54;14.73;;;6.57;;
69414;SDS011;56608;43.530;-5.652;2023-02-11T06:35:56;13.52;;;6.45;;
69414;SDS011;56608;43.530;-5.652;2023-02-11T06:36:57;12.52;;;6.78;;
69414;SDS011;56608;43.530;-5.652;2023-02-11T06:37:59;12.10;;;6.60;;
69414;SDS011;56608;43.530;-5.652;2023-02-11T06:39:00;12.93;;;6.40;;
69414;SDS011;56608;43.530;-5.652;2023-02-11T06:40:01;14.05;;;6.50;;
69414;SDS011;56608;43.530;-5.652;2023-02-11T06:41:03;14.93;;;6.50;;
69414;SDS011;56608;43.530;-5.652;2023-02-11T06:42:04;13.23;;;6.47;;
69414;SDS011;56608;43.530;-5.652;2023-02-11T06:43:06;13.30;;;6.55;;
69414;SDS011;56608;43.530;-5.652;2023-02-11T06:44:06;16.10;;;6.90;;
69414;SDS011;56608;43.530;-5.652;2023-02-11T06:45:08;13.57;;;6.62;;
69414;SDS011;56608;43.530;-5.652;2023-02-11T06:46:10;11.98;;;6.93;;
69414;SDS011;56608;43.530;-5.652;2023-02-11T06:47:12;13.23;;;7.00;;
69414;SDS011;56608;43.530;-5.652;2023-02-11T06:48:13;13.45;;;6.43;;
69414;SDS011;56608;43.530;-5.652;2023-02-11T06:50:16;14.13;;;6.85;;
69414;SDS011;56608;43.530;-5.652;2023-02-11T06:51:17;14.30;;;6.57;;
69414;SDS011;56608;43.530;-5.652;2023-02-11T06:52:19;13.23;;;6.75;;
69414;SDS011;56608;43.530;-5.652;2023-02-11T06:53:20;17.47;;;6.27;;